Detailed Flight Report of Nuri ERKAL ;
Number CXD079 
Departure Aerodrome HAAB 
Arrival Aerodrome LTAI

Map generated by the Great Circle Mapper - copyright © Karl L. Swartz.

Pilot In Command CXD079 : Nuri Erkal
Aircraft B738 / TC-KRD
Date Of Flight 2019-11-01
Departure Time 14:34 UTC
Arrival Time 18:44 UTC
Block Time 04:10
Distance 1,776 Nm.
Used Fuel 32,767 Lbs.
   
Detailed Flight Log [2019/11/01 14:33:00]
Flight IATA:C001
Pilot Number:079
Company ICAO:CXD
Aircraft Type:B738
Aircraft Registration:TC-KRD
Departing Airport: HAAB
Destination Airport: LTAI
Alternate Airport:LTBS
Online: VATSIM
Route:AMUDO UT124 ALRAP UM565 NUBAR A727 SML L321 GIBAD W8 CVO A16 RASDA UA16 DERYA
Flight Level:FL380
No pause
14:33 Zero fuel Weight: 121806 Lbs, Fuel Weight: 45921 Lbs
14:33 VATSIM:HAAB 011900Z 06011KT 9999 BKN025 16/04 Q1026
14:33 VATSIM:LTAI 011920Z 33011KT 9999 SCT030 17/12 Q1013 NOSIG
14:46 Parking Brakes off
14:58 VR= 154 Knots
14:59 V2= 156 Knots
14:59 Take-off
14:59 Take off Weight: 154978 Lbs
14:59 Wind: 209º @ 004 Knots Heading: 253º
14:59 POS N08º 58´ 29´´ E038º 47´ 31´´
14:59 N11 101 N12 101
14:59 Gear Up: 156 Knots
14:59 Flaps:5º at 156 Knots
14:59 Flaps:2º at 159 Knots
14:59 Flaps:1º at 171 Knots
14:59 Flaps:Up at 179 Knots
15:14 Wind:065
º@023 Knots Heading: 335º Ground Speed: 478 Knots Altitude 29019 ft
15:23 TOC
15:23 Fuel Weight: 21595 Lb
15:29 Wind:083º@037 Knots Heading: 340º Ground Speed: 468 Knots Altitude 38166 ft
15:44 Wind:099º@022 Knots Heading: 335º Ground Speed: 474 Knots Altitude 37995 ft
15:59 Wind:103º@036 Knots Heading: 336º Ground Speed: 487 Knots Altitude 37933 ft
16:14 Wind:092º@037 Knots Heading: 336º Ground Speed: 484 Knots Altitude 37874 ft
16:29 Wind:090º@032 Knots Heading: 335º Ground Speed: 483 Knots Altitude 37877 ft
16:44 Wind:090º@023 Knots Heading: 349º Ground Speed: 476 Knots Altitude 37860 ft
16:59 Wind:096º@013 Knots Heading: 347º Ground Speed: 476 Knots Altitude 37864 ft
17:14 Wind:119º@003 Knots Heading: 346º Ground Speed: 474 Knots Altitude 37841 ft
17:29 Wind:261º@005 Knots Heading: 345º Ground Speed: 472 Knots Altitude 37900 ft
17:44 Wind:244º@008 Knots Heading
: 000º Ground Speed: 477 Knots Altitude 37890 ft
17:59 Wind:220º@010 Knots Heading: 000º Ground Speed: 482 Knots Altitude 37903 ft
18:14 Wind:227º@019 Knots Heading: 352º Ground Speed: 487 Knots Altitude 37880 ft
18:24 TOD
18:24 Fuel Weight: 6009 Lb
18:29 Wind:247º@036 Knots Heading: 354º Ground Speed: 467 Knots Altitude 30088 ft
18:44 Wind:322º@008 Knots Heading: 357º Ground Speed: 250 Knots Altitude 8877 ft
18:50 Gear Down: 223 Knots
18:50 Flaps:1º at 197 Knots
18:50 Flaps:2º at 187 Knots
18:50 Flaps:5º at 180 Knots
18:50 Flaps:10º at 171 Knots
18:51 Flaps:15º at 160 Knots
18:51 Flaps:25º at 159 Knots
18:51 Flaps:30º at 150 Knots
18:51 Flaps:Full at 148 Knots
18:53 TouchDown:Rate -76 ft/min Speed: 123 Knots
18:53 VATSIM:LTAI 012320Z 33011KT 9999 FEW030 17/09 Q1014 NOSIG
18:53 Land
18:53 Wind:292º@003 Knots
18:53 Heading: 005º
18:53 Flight Duration: 03:54

18:53 Landing Weight: 134029 Lbs
18:53 POS N36º 54´ 05´´ E030º 47´ 34´´
18:56 Parking brakes on
18:56 Block to Block Duration: 04:10
18:56 Final Fuel: 4634 Lbls
18:56 Spent Fuel: 41287 Lbls
18:56 Flight Length: 1776 NM
18:56 TOD Land Length: 159 NM

Text Link of Flight Log http://www.candanair.net/acars/logs/CXD07920191101143300.txt
   

[ Back ]